sensor_id;sensor_type;location;lat;lon;timestamp;temperature;humidity
29207;DHT22;16247;50.840;4.382;2022-11-15T00:02:08;12.50;99.90
29207;DHT22;16247;50.840;4.382;2022-11-15T00:04:54;12.60;99.90
29207;DHT22;16247;50.840;4.382;2022-11-15T00:07:20;12.70;99.90
29207;DHT22;16247;50.840;4.382;2022-11-15T00:09:48;12.60;99.90
29207;DHT22;16247;50.840;4.382;2022-11-15T00:12:38;12.70;99.90
29207;DHT22;16247;50.840;4.382;2022-11-15T00:15:40;12.70;99.90
29207;DHT22;16247;50.840;4.382;2022-11-15T00:18:45;12.70;99.90
29207;DHT22;16247;50.840;4.382;2022-11-15T00:21:53;12.70;99.90
29207;DHT22;16247;50.840;4.382;2022-11-15T00:25:15;12.70;99.90
29207;DHT22;16247;50.840;4.382;2022-11-15T00:28:26;12.60;99.90
29207;DHT22;16247;50.840;4.382;2022-11-15T00:31:21;12.60;99.90
29207;DHT22;16247;50.840;4.382;2022-11-15T00:34:16;12.60;99.90
29207;DHT22;16247;50.840;4.382;2022-11-15T00:36:49;12.60;99.90
29207;DHT22;16247;50.840;4.382;2022-11-15T00:39:45;12.80;99.90
29207;DHT22;16247;50.840;4.382;2022-11-15T00:42:11;12.60;99.90
29207;DHT22;16247;50.840;4.382;2022-11-15T00:44:41;12.60;99.90
29207;DHT22;16247;50.840;4.382;2022-11-15T00:47:43;12.80;99.90
29207;DHT22;16247;50.840;4.382;2022-11-15T00:50:32;12.70;99.90
29207;DHT22;16247;50.840;4.382;2022-11-15T00:56:25;12.60;99.90
29207;DHT22;16247;50.840;4.382;2022-11-15T00:59:04;12.70;99.90
29207;DHT22;16247;50.840;4.382;2022-11-15T01:02:05;12.80;99.90
29207;DHT22;16247;50.840;4.382;2022-11-15T01:04:56;12.90;99.90
29207;DHT22;16247;50.840;4.382;2022-11-15T01:08:30;12.80;99.90
29207;DHT22;16247;50.840;4.382;2022-11-15T01:11:16;12.80;99.90
29207;DHT22;16247;50.840;4.382;2022-11-15T01:13:46;12.80;99.90
29207;DHT22;16247;50.840;4.382;2022-11-15T01:16:29;12.90;99.90
29207;DHT22;16247;50.840;4.382;2022-11-15T01:19:38;12.70;99.90
29207;DHT22;16247;50.840;4.382;2022-11-15T01:22:10;12.70;99.90
29207;DHT22;16247;50.840;4.382;2022-11-15T01:25:07;12.80;99.90
29207;DHT22;16247;50.840;4.382;2022-11-15T01:28:10;12.60;99.90
29207;DHT22;16247;50.840;4.382;2022-11-15T01:31:12;12.80;99.90
29207;DHT22;16247;50.840;4.382;2022-11-15T01:34:12;12.60;99.90
29207;DHT22;16247;50.840;4.382;2022-11-15T01:36:58;12.80;99.90
29207;DHT22;16247;50.840;4.382;2022-11-15T01:40:36;12.70;99.90
29207;DHT22;16247;50.840;4.382;2022-11-15T01:43:51;12.70;99.90
29207;DHT22;16247;50.840;4.382;2022-11-15T01:47:03;12.90;99.90
29207;DHT22;16247;50.840;4.382;2022-11-15T01:49:49;12.80;99.90
29207;DHT22;16247;50.840;4.382;2022-11-15T01:52:18;13.00;99.90
29207;DHT22;16247;50.840;4.382;2022-11-15T01:57:53;12.60;99.90
29207;DHT22;16247;50.840;4.382;2022-11-15T02:00:20;12.60;99.90
29207;DHT22;16247;50.840;4.382;2022-11-15T02:02:51;12.60;99.90
29207;DHT22;16247;50.840;4.382;2022-11-15T02:05:21;12.80;99.90
29207;DHT22;16247;50.840;4.382;2022-11-15T02:08:27;12.70;99.90
29207;DHT22;16247;50.840;4.382;2022-11-15T02:11:14;12.70;99.90
29207;DHT22;16247;50.840;4.382;2022-11-15T02:14:09;12.90;99.90
29207;DHT22;16247;50.840;4.382;2022-11-15T02:32:52;12.70;99.90
29207;DHT22;16247;50.840;4.382;2022-11-15T02:41:40;12.60;99.90
29207;DHT22;16247;50.840;4.382;2022-11-15T02:49:48;12.70;99.90
29207;DHT22;16247;50.840;4.382;2022-11-15T02:52:35;12.60;99.90
29207;DHT22;16247;50.840;4.382;2022-11-15T02:55:03;12.50;99.90
29207;DHT22;16247;50.840;4.382;2022-11-15T03:00:46;12.70;99.90
29207;DHT22;16247;50.840;4.382;2022-11-15T03:06:03;12.60;99.90
29207;DHT22;16247;50.840;4.382;2022-11-15T03:12:30;12.60;99.90
29207;DHT22;16247;50.840;4.382;2022-11-15T03:15:31;12.60;99.90
29207;DHT22;16247;50.840;4.382;2022-11-15T03:21:28;12.70;99.90
29207;DHT22;16247;50.840;4.382;2022-11-15T03:27:43;12.70;99.90
29207;DHT22;16247;50.840;4.382;2022-11-15T03:33:35;12.60;99.90
29207;DHT22;16247;50.840;4.382;2022-11-15T03:41:41;12.40;99.90
29207;DHT22;16247;50.840;4.382;2022-11-15T03:47:52;12.30;99.90
29207;DHT22;16247;50.840;4.382;2022-11-15T03:50:54;12.20;99.90
29207;DHT22;16247;50.840;4.382;2022-11-15T03:53:52;12.40;99.90
29207;DHT22;16247;50.840;4.382;2022-11-15T03:56:42;12.20;99.90
29207;DHT22;16247;50.840;4.382;2022-11-15T03:59:22;12.30;99.90
29207;DHT22;16247;50.840;4.382;2022-11-15T04:02:11;12.40;99.90
29207;DHT22;16247;50.840;4.382;2022-11-15T04:04:57;12.40;99.90
29207;DHT22;16247;50.840;4.382;2022-11-15T04:07:42;12.20;99.90
29207;DHT22;16247;50.840;4.382;2022-11-15T04:10:17;12.20;99.90
29207;DHT22;16247;50.840;4.382;2022-11-15T04:12:44;12.30;99.90
29207;DHT22;16247;50.840;4.382;2022-11-15T04:15:17;12.30;99.90
29207;DHT22;16247;50.840;4.382;2022-11-15T04:18:05;12.40;99.90
29207;DHT22;16247;50.840;4.382;2022-11-15T04:20:34;12.50;99.90
29207;DHT22;16247;50.840;4.382;2022-11-15T04:23:21;12.50;99.90
29207;DHT22;16247;50.840;4.382;2022-11-15T04:26:40;12.40;99.90
29207;DHT22;16247;50.840;4.382;2022-11-15T04:29:08;12.40;99.90
29207;DHT22;16247;50.840;4.382;2022-11-15T04:31:54;12.40;99.90
29207;DHT22;16247;50.840;4.382;2022-11-15T04:34:40;12.40;99.90
29207;DHT22;16247;50.840;4.382;2022-11-15T04:37:29;12.30;99.90
29207;DHT22;16247;50.840;4.382;2022-11-15T04:40:17;12.20;99.90
29207;DHT22;16247;50.840;4.382;2022-11-15T04:42:56;12.20;99.90
29207;DHT22;16247;50.840;4.382;2022-11-15T04:45:24;12.20;99.90
29207;DHT22;16247;50.840;4.382;2022-11-15T04:48:07;12.20;99.90
29207;DHT22;16247;50.840;4.382;2022-11-15T04:50:34;12.20;99.90
29207;DHT22;16247;50.840;4.382;2022-11-15T04:53:04;12.10;99.90
29207;DHT22;16247;50.840;4.382;2022-11-15T04:55:45;12.10;99.90
29207;DHT22;16247;50.840;4.382;2022-11-15T04:58:17;12.10;99.90
29207;DHT22;16247;50.840;4.382;2022-11-15T05:00:55;12.00;99.90
29207;DHT22;16247;50.840;4.382;2022-11-15T05:03:46;12.00;99.90
29207;DHT22;16247;50.840;4.382;2022-11-15T05:06:50;12.20;99.90
29207;DHT22;16247;50.840;4.382;2022-11-15T05:10:21;12.00;99.90
29207;DHT22;16247;50.840;4.382;2022-11-15T05:13:11;11.90;99.90
29207;DHT22;16247;50.840;4.382;2022-11-15T05:16:04;12.00;99.90
29207;DHT22;16247;50.840;4.382;2022-11-15T05:18:54;11.90;99.90
29207;DHT22;16247;50.840;4.382;2022-11-15T05:21:42;11.90;99.90
29207;DHT22;16247;50.840;4.382;2022-11-15T05:24:46;11.80;99.90
29207;DHT22;16247;50.840;4.382;2022-11-15T05:27:53;11.90;99.90
29207;DHT22;16247;50.840;4.382;2022-11-15T05:30:48;11.80;99.90
29207;DHT22;16247;50.840;4.382;2022-11-15T05:33:23;11.70;99.90
29207;DHT22;16247;50.840;4.382;2022-11-15T05:39:19;11.60;99.90
29207;DHT22;16247;50.840;4.382;2022-11-15T05:42:13;11.60;99.90
29207;DHT22;16247;50.840;4.382;2022-11-15T05:48:28;11.30;99.90
29207;DHT22;16247;50.840;4.382;2022-11-15T05:54:00;11.30;99.90
29207;DHT22;16247;50.840;4.382;2022-11-15T05:56:56;11.50;99.90
29207;DHT22;16247;50.840;4.382;2022-11-15T05:59:43;11.30;99.90
29207;DHT22;16247;50.840;4.382;2022-11-15T06:02:15;11.10;99.90
29207;DHT22;16247;50.840;4.382;2022-11-15T06:04:43;11.30;99.90
29207;DHT22;16247;50.840;4.382;2022-11-15T06:07:15;11.20;99.90
29207;DHT22;16247;50.840;4.382;2022-11-15T06:10:01;11.30;99.90
29207;DHT22;16247;50.840;4.382;2022-11-15T06:12:33;11.30;99.90
29207;DHT22;16247;50.840;4.382;2022-11-15T06:15:10;11.10;99.90
29207;DHT22;16247;50.840;4.382;2022-11-15T06:17:37;11.00;99.90
29207;DHT22;16247;50.840;4.382;2022-11-15T06:20:24;11.10;99.90
29207;DHT22;16247;50.840;4.382;2022-11-15T06:23:15;11.10;99.90
29207;DHT22;16247;50.840;4.382;2022-11-15T06:26:03;11.00;99.90
29207;DHT22;16247;50.840;4.382;2022-11-15T06:28:33;11.00;99.90
29207;DHT22;16247;50.840;4.382;2022-11-15T06:31:29;11.20;99.90
29207;DHT22;16247;50.840;4.382;2022-11-15T06:34:04;11.20;99.90
29207;DHT22;16247;50.840;4.382;2022-11-15T06:36:51;11.10;99.90
29207;DHT22;16247;50.840;4.382;2022-11-15T06:42:11;11.00;99.90
29207;DHT22;16247;50.840;4.382;2022-11-15T06:44:39;11.00;99.90
29207;DHT22;16247;50.840;4.382;2022-11-15T06:47:09;10.90;99.90
29207;DHT22;16247;50.840;4.382;2022-11-15T06:49:43;11.10;99.90
29207;DHT22;16247;50.840;4.382;2022-11-15T06:52:40;10.80;99.90
29207;DHT22;16247;50.840;4.382;2022-11-15T06:55:26;10.90;99.90
29207;DHT22;16247;50.840;4.382;2022-11-15T06:58:53;11.10;99.90
29207;DHT22;16247;50.840;4.382;2022-11-15T07:01:21;10.80;99.90
29207;DHT22;16247;50.840;4.382;2022-11-15T07:03:56;10.80;99.90
29207;DHT22;16247;50.840;4.382;2022-11-15T07:06:26;10.80;99.90
29207;DHT22;16247;50.840;4.382;2022-11-15T07:08:54;10.80;99.90
29207;DHT22;16247;50.840;4.382;2022-11-15T07:11:22;10.90;99.90
29207;DHT22;16247;50.840;4.382;2022-11-15T07:13:47;11.00;99.90
29207;DHT22;16247;50.840;4.382;2022-11-15T07:16:14;10.90;99.90
29207;DHT22;16247;50.840;4.382;2022-11-15T07:18:41;10.90;99.90
29207;DHT22;16247;50.840;4.382;2022-11-15T07:21:11;10.80;99.90
29207;DHT22;16247;50.840;4.382;2022-11-15T07:23:39;10.80;99.90
29207;DHT22;16247;50.840;4.382;2022-11-15T07:26:07;10.70;99.90
29207;DHT22;16247;50.840;4.382;2022-11-15T07:28:34;10.80;99.90
29207;DHT22;16247;50.840;4.382;2022-11-15T07:31:07;10.80;99.90
29207;DHT22;16247;50.840;4.382;2022-11-15T07:33:35;11.00;99.90
29207;DHT22;16247;50.840;4.382;2022-11-15T07:36:05;10.90;99.90
29207;DHT22;16247;50.840;4.382;2022-11-15T07:38:41;10.80;99.90
29207;DHT22;16247;50.840;4.382;2022-11-15T07:41:07;10.90;99.90
29207;DHT22;16247;50.840;4.382;2022-11-15T07:43:33;10.70;99.90
29207;DHT22;16247;50.840;4.382;2022-11-15T07:46:05;10.80;99.90
29207;DHT22;16247;50.840;4.382;2022-11-15T07:51:14;10.60;99.90
29207;DHT22;16247;50.840;4.382;2022-11-15T07:53:51;10.60;99.90
29207;DHT22;16247;50.840;4.382;2022-11-15T07:56:17;10.80;99.90
29207;DHT22;16247;50.840;4.382;2022-11-15T07:58:49;10.90;99.90
29207;DHT22;16247;50.840;4.382;2022-11-15T08:01:18;10.80;99.90
29207;DHT22;16247;50.840;4.382;2022-11-15T08:03:50;10.90;99.90
29207;DHT22;16247;50.840;4.382;2022-11-15T08:06:18;11.00;99.90
29207;DHT22;16247;50.840;4.382;2022-11-15T08:08:44;11.00;99.90
29207;DHT22;16247;50.840;4.382;2022-11-15T08:11:09;11.10;99.90
29207;DHT22;16247;50.840;4.382;2022-11-15T08:13:36;11.20;99.90
29207;DHT22;16247;50.840;4.382;2022-11-15T08:16:06;11.20;99.90
29207;DHT22;16247;50.840;4.382;2022-11-15T08:18:33;11.00;99.90
29207;DHT22;16247;50.840;4.382;2022-11-15T08:21:00;11.20;99.90
29207;DHT22;16247;50.840;4.382;2022-11-15T08:23:26;11.30;99.90
29207;DHT22;16247;50.840;4.382;2022-11-15T08:25:52;11.10;99.90
29207;DHT22;16247;50.840;4.382;2022-11-15T08:28:17;11.20;99.90
29207;DHT22;16247;50.840;4.382;2022-11-15T08:30:43;11.30;99.90
29207;DHT22;16247;50.840;4.382;2022-11-15T08:33:13;11.20;99.90
29207;DHT22;16247;50.840;4.382;2022-11-15T08:35:43;11.40;99.90
29207;DHT22;16247;50.840;4.382;2022-11-15T08:38:09;11.30;99.90
29207;DHT22;16247;50.840;4.382;2022-11-15T08:40:37;11.10;99.90
29207;DHT22;16247;50.840;4.382;2022-11-15T08:43:03;11.10;99.90
29207;DHT22;16247;50.840;4.382;2022-11-15T08:45:30;11.30;99.90
29207;DHT22;16247;50.840;4.382;2022-11-15T08:47:56;11.40;99.90
29207;DHT22;16247;50.840;4.382;2022-11-15T08:50:22;11.40;99.90
29207;DHT22;16247;50.840;4.382;2022-11-15T08:52:48;11.40;99.90
29207;DHT22;16247;50.840;4.382;2022-11-15T08:55:14;11.50;99.90
29207;DHT22;16247;50.840;4.382;2022-11-15T08:57:39;11.60;99.90
29207;DHT22;16247;50.840;4.382;2022-11-15T09:00:06;11.60;99.90
29207;DHT22;16247;50.840;4.382;2022-11-15T09:02:31;11.60;99.90
29207;DHT22;16247;50.840;4.382;2022-11-15T09:04:58;11.80;99.90
29207;DHT22;16247;50.840;4.382;2022-11-15T09:07:24;11.60;99.90
29207;DHT22;16247;50.840;4.382;2022-11-15T09:09:49;11.60;99.90
29207;DHT22;16247;50.840;4.382;2022-11-15T09:12:15;11.70;99.90
29207;DHT22;16247;50.840;4.382;2022-11-15T09:14:41;12.00;99.90
29207;DHT22;16247;50.840;4.382;2022-11-15T09:17:09;12.20;99.90
29207;DHT22;16247;50.840;4.382;2022-11-15T09:19:35;12.00;99.90
29207;DHT22;16247;50.840;4.382;2022-11-15T09:22:05;12.00;99.90
29207;DHT22;16247;50.840;4.382;2022-11-15T09:24:31;12.20;99.90
29207;DHT22;16247;50.840;4.382;2022-11-15T09:26:57;12.40;99.90
29207;DHT22;16247;50.840;4.382;2022-11-15T09:29:23;12.60;99.90
29207;DHT22;16247;50.840;4.382;2022-11-15T09:31:48;12.70;99.90
29207;DHT22;16247;50.840;4.382;2022-11-15T09:34:16;12.60;99.90
29207;DHT22;16247;50.840;4.382;2022-11-15T09:36:48;12.70;99.90
29207;DHT22;16247;50.840;4.382;2022-11-15T09:39:14;12.80;99.90
29207;DHT22;16247;50.840;4.382;2022-11-15T09:41:58;12.50;99.90
29207;DHT22;16247;50.840;4.382;2022-11-15T09:44:39;12.50;99.90
29207;DHT22;16247;50.840;4.382;2022-11-15T09:50:17;12.90;99.90
29207;DHT22;16247;50.840;4.382;2022-11-15T09:52:45;13.10;99.90
29207;DHT22;16247;50.840;4.382;2022-11-15T09:55:13;13.30;99.90
29207;DHT22;16247;50.840;4.382;2022-11-15T10:00:52;13.50;99.90
29207;DHT22;16247;50.840;4.382;2022-11-15T10:03:34;13.70;99.90
29207;DHT22;16247;50.840;4.382;2022-11-15T10:06:04;13.30;99.90
29207;DHT22;16247;50.840;4.382;2022-11-15T10:08:40;13.40;99.90
29207;DHT22;16247;50.840;4.382;2022-11-15T10:11:23;13.50;99.90
29207;DHT22;16247;50.840;4.382;2022-11-15T10:13:51;13.40;99.90
29207;DHT22;16247;50.840;4.382;2022-11-15T10:16:31;13.30;99.90
29207;DHT22;16247;50.840;4.382;2022-11-15T10:24:59;13.30;99.90
29207;DHT22;16247;50.840;4.382;2022-11-15T10:27:25;13.50;99.90
29207;DHT22;16247;50.840;4.382;2022-11-15T10:30:22;13.60;99.90
29207;DHT22;16247;50.840;4.382;2022-11-15T11:07:25;13.50;99.90
